createdAt,value
2018-03-15T00:01:41.952Z,4.30
2018-03-15T00:04:10.246Z,4.30
2018-03-15T00:06:38.429Z,4.20
2018-03-15T00:09:06.641Z,4.30
2018-03-15T00:11:34.851Z,4.30
2018-03-15T00:14:03.809Z,4.20
2018-03-15T00:16:32.767Z,4.30
2018-03-15T00:19:01.073Z,4.30
2018-03-15T00:21:29.287Z,4.30
2018-03-15T00:23:57.541Z,4.30
2018-03-15T00:26:26.513Z,4.30
2018-03-15T00:28:54.733Z,4.30
2018-03-15T00:31:23.679Z,4.20
2018-03-15T00:33:51.908Z,4.20
2018-03-15T00:36:20.098Z,4.20
2018-03-15T00:38:48.320Z,4.30
2018-03-15T00:41:18.035Z,4.20
2018-03-15T00:43:46.228Z,4.20
2018-03-15T00:46:14.517Z,4.00
2018-03-15T00:48:42.713Z,4.10
2018-03-15T00:51:10.920Z,4.10
2018-03-15T00:53:39.203Z,4.10
2018-03-15T00:56:08.334Z,3.90
2018-03-15T00:58:36.589Z,3.90
2018-03-15T01:01:04.778Z,3.90
2018-03-15T01:03:33.825Z,3.80
2018-03-15T01:06:02.013Z,3.80
2018-03-15T01:08:31.053Z,3.60
2018-03-15T01:10:59.272Z,3.60
2018-03-15T01:13:28.232Z,3.70
2018-03-15T01:15:57.258Z,3.70
2018-03-15T01:18:26.253Z,3.70
2018-03-15T01:20:54.475Z,3.70
2018-03-15T01:23:22.729Z,3.70
2018-03-15T01:25:50.913Z,3.70
2018-03-15T01:28:19.090Z,3.50
2018-03-15T01:30:47.320Z,3.60
2018-03-15T01:33:15.620Z,3.70
2018-03-15T01:35:43.832Z,3.70
2018-03-15T01:38:12.048Z,3.70
2018-03-15T01:40:41.008Z,3.60
2018-03-15T01:43:09.258Z,3.60
2018-03-15T01:45:37.458Z,3.70
2018-03-15T01:48:05.664Z,3.70
2018-03-15T01:50:33.878Z,3.70
2018-03-15T01:53:02.111Z,3.70
2018-03-15T01:55:30.369Z,3.70
2018-03-15T01:57:58.660Z,3.70
2018-03-15T02:00:26.932Z,3.70
2018-03-15T02:02:56.005Z,3.60
2018-03-15T02:05:25.038Z,3.70
2018-03-15T02:07:53.321Z,3.70
2018-03-15T02:10:21.558Z,3.60
2018-03-15T02:12:49.834Z,3.50
2018-03-15T02:15:18.856Z,3.50
2018-03-15T02:17:48.200Z,3.40
2018-03-15T02:20:16.454Z,3.40
2018-03-15T02:22:44.676Z,3.30
2018-03-15T02:25:13.435Z,3.20
2018-03-15T02:27:41.773Z,3.20
2018-03-15T02:30:09.988Z,3.10
2018-03-15T02:32:38.255Z,3.10
2018-03-15T02:35:06.456Z,3.10
2018-03-15T02:37:34.671Z,3.10
2018-03-15T02:40:02.874Z,3.10
2018-03-15T02:42:31.082Z,3.10
2018-03-15T02:44:59.692Z,3.10
2018-03-15T02:47:28.039Z,3.20
2018-03-15T02:49:56.316Z,3.20
2018-03-15T02:52:24.567Z,3.10
2018-03-15T02:54:52.827Z,3.10
2018-03-15T02:57:21.044Z,3.10
2018-03-15T02:59:50.066Z,3.00
2018-03-15T03:02:18.243Z,2.90
2018-03-15T03:04:46.449Z,2.80
2018-03-15T03:07:14.661Z,2.60
2018-03-15T03:09:43.632Z,2.50
2018-03-15T03:12:11.794Z,2.50
2018-03-15T03:14:40.018Z,2.40
2018-03-15T03:17:08.220Z,2.40
2018-03-15T03:19:36.473Z,2.40
2018-03-15T03:22:04.663Z,2.40
2018-03-15T03:24:32.881Z,2.30
2018-03-15T03:27:01.164Z,2.40
2018-03-15T03:29:29.414Z,2.20
2018-03-15T03:31:57.635Z,2.20
2018-03-15T03:34:25.865Z,2.30
2018-03-15T03:36:54.067Z,2.30
2018-03-15T03:39:22.311Z,2.40
2018-03-15T03:41:50.511Z,2.40
2018-03-15T03:44:18.800Z,2.40
2018-03-15T03:46:47.811Z,2.40
2018-03-15T03:49:16.135Z,2.30
2018-03-15T03:51:44.393Z,2.30
2018-03-15T03:54:12.727Z,2.40
2018-03-15T03:56:41.013Z,2.40
2018-03-15T03:59:09.295Z,2.40
2018-03-15T04:01:37.587Z,2.40
2018-03-15T04:04:05.779Z,2.30
2018-03-15T04:06:33.964Z,2.30
2018-03-15T04:09:02.150Z,2.30
2018-03-15T04:11:30.363Z,2.30
2018-03-15T04:13:58.568Z,2.20
2018-03-15T04:16:26.796Z,2.30
2018-03-15T04:18:55.777Z,2.20
2018-03-15T04:21:24.745Z,2.30
2018-03-15T04:23:53.251Z,2.20
2018-03-15T04:26:22.304Z,2.30
2018-03-15T04:28:50.474Z,2.30
2018-03-15T04:31:18.675Z,2.30
2018-03-15T04:33:46.890Z,2.40
2018-03-15T04:36:15.174Z,2.50
2018-03-15T04:38:43.375Z,2.50
2018-03-15T04:41:12.445Z,2.50
2018-03-15T04:43:40.625Z,2.60
2018-03-15T04:46:08.826Z,2.60
2018-03-15T04:48:37.035Z,2.60
2018-03-15T04:51:05.267Z,2.60
2018-03-15T04:53:33.467Z,2.60
2018-03-15T04:56:01.673Z,2.60
2018-03-15T04:58:29.972Z,2.60
2018-03-15T05:00:58.139Z,2.60
2018-03-15T05:03:26.400Z,2.70
2018-03-15T05:05:54.637Z,2.70
2018-03-15T05:08:22.868Z,2.80
2018-03-15T05:10:51.091Z,2.80
2018-03-15T05:13:20.064Z,2.80
2018-03-15T05:15:48.359Z,2.80
2018-03-15T05:18:16.879Z,2.90
2018-03-15T05:20:45.061Z,2.80
2018-03-15T05:23:13.275Z,2.80
2018-03-15T05:25:41.479Z,2.90
2018-03-15T05:28:09.691Z,2.80
2018-03-15T05:30:37.942Z,2.80
2018-03-15T05:33:06.130Z,2.80
2018-03-15T05:35:34.336Z,2.90
2018-03-15T05:38:02.617Z,3.00
2018-03-15T05:40:30.891Z,3.00
2018-03-15T05:42:59.090Z,3.00
2018-03-15T05:45:28.060Z,3.10
2018-03-15T05:47:56.265Z,3.10
2018-03-15T05:50:24.488Z,3.20
2018-03-15T05:52:52.672Z,3.20
2018-03-15T05:55:20.898Z,3.30
2018-03-15T05:57:49.161Z,3.40
2018-03-15T06:00:18.114Z,3.40
2018-03-15T06:02:46.320Z,3.40
2018-03-15T06:05:14.526Z,3.30
2018-03-15T06:07:42.748Z,3.40
2018-03-15T06:10:10.999Z,3.40
2018-03-15T06:12:39.168Z,3.30
2018-03-15T06:15:07.392Z,3.40
2018-03-15T06:17:35.611Z,3.40
2018-03-15T06:20:03.847Z,3.30
2018-03-15T06:22:32.065Z,3.40
2018-03-15T06:25:00.314Z,3.50
2018-03-15T06:27:28.561Z,3.50
2018-03-15T06:29:57.531Z,3.60
2018-03-15T06:32:25.789Z,3.60
2018-03-15T06:34:53.987Z,3.60
2018-03-15T06:37:22.238Z,3.40
2018-03-15T06:39:50.465Z,3.50
2018-03-15T06:42:18.683Z,3.40
2018-03-15T06:44:46.892Z,3.50
2018-03-15T06:47:15.861Z,3.50
2018-03-15T06:49:44.078Z,3.50
2018-03-15T06:52:12.414Z,3.40
2018-03-15T06:54:40.594Z,3.50
2018-03-15T06:57:08.851Z,3.50
2018-03-15T06:59:37.034Z,3.50
2018-03-15T07:02:05.217Z,3.60
2018-03-15T07:04:33.420Z,3.70
2018-03-15T07:07:01.651Z,3.60
2018-03-15T07:09:29.875Z,3.70
2018-03-15T07:11:58.077Z,3.70
2018-03-15T07:14:26.257Z,3.60
2018-03-15T07:16:54.449Z,3.70
2018-03-15T07:19:22.642Z,3.70
2018-03-15T07:21:51.644Z,3.60
2018-03-15T07:24:19.874Z,3.60
2018-03-15T07:26:48.072Z,3.70
2018-03-15T07:29:16.289Z,3.60
2018-03-15T07:31:44.474Z,3.80
2018-03-15T07:34:12.686Z,3.80
2018-03-15T07:36:40.872Z,3.60
2018-03-15T07:39:09.153Z,3.80
2018-03-15T07:41:37.357Z,3.90
2018-03-15T07:44:05.560Z,3.90
2018-03-15T07:46:33.772Z,4.00
2018-03-15T07:49:02.757Z,4.10
2018-03-15T07:51:31.757Z,4.20
2018-03-15T07:54:00.737Z,4.30
2018-03-15T07:56:28.961Z,4.20
2018-03-15T07:58:57.127Z,4.30
2018-03-15T08:01:25.430Z,4.30
2018-03-15T08:03:53.656Z,4.40
2018-03-15T08:06:22.615Z,4.40
2018-03-15T08:08:50.842Z,4.40
2018-03-15T08:11:19.181Z,4.50
2018-03-15T08:13:48.179Z,4.60
2018-03-15T08:16:17.143Z,4.60
2018-03-15T08:18:45.356Z,4.60
2018-03-15T08:21:13.695Z,4.60
2018-03-15T08:23:41.913Z,4.80
2018-03-15T08:26:10.104Z,4.90
2018-03-15T08:28:38.281Z,5.00
2018-03-15T08:31:06.527Z,5.00
2018-03-15T08:33:34.730Z,5.10
2018-03-15T08:36:02.933Z,5.10
2018-03-15T08:38:31.234Z,5.10
2018-03-15T08:41:00.226Z,5.00
2018-03-15T08:43:29.242Z,5.00
2018-03-15T08:45:58.337Z,5.00
2018-03-15T08:48:27.316Z,5.00
2018-03-15T08:50:56.269Z,5.10
2018-03-15T08:53:24.472Z,5.00
2018-03-15T08:55:52.777Z,5.10
2018-03-15T08:58:21.039Z,5.10
2018-03-15T09:00:49.284Z,5.20
2018-03-15T09:03:17.496Z,5.30
2018-03-15T09:05:45.713Z,5.40
2018-03-15T09:08:14.582Z,5.40
2018-03-15T09:10:42.765Z,5.50
2018-03-15T09:13:11.054Z,5.20
2018-03-15T09:15:39.403Z,5.30
2018-03-15T09:18:07.676Z,5.30
2018-03-15T09:20:35.871Z,5.30
2018-03-15T09:23:04.054Z,5.40
2018-03-15T09:25:32.373Z,5.50
2018-03-15T09:28:01.318Z,5.30
2018-03-15T09:30:29.571Z,5.30
2018-03-15T09:32:57.833Z,5.40
2018-03-15T09:35:26.075Z,5.50
2018-03-15T09:37:55.211Z,5.40
2018-03-15T09:40:23.424Z,5.40
2018-03-15T09:42:51.670Z,5.40
2018-03-15T09:45:20.038Z,5.50
2018-03-15T09:47:48.262Z,5.40
2018-03-15T09:50:17.286Z,5.70
2018-03-15T09:52:45.509Z,5.70
2018-03-15T09:55:13.953Z,6.00
2018-03-15T09:57:42.915Z,5.80
2018-03-15T10:00:12.018Z,5.60
2018-03-15T10:02:41.023Z,5.70
2018-03-15T10:05:09.262Z,5.60
2018-03-15T10:07:38.275Z,5.50
2018-03-15T10:10:06.548Z,5.50
2018-03-15T10:12:34.782Z,5.40
2018-03-15T10:15:02.998Z,5.10
2018-03-15T10:17:31.267Z,5.30
2018-03-15T10:19:59.465Z,5.40
2018-03-15T10:22:27.650Z,5.50
2018-03-15T10:24:55.864Z,5.40
2018-03-15T10:27:24.095Z,5.50
2018-03-15T10:29:52.308Z,5.60
2018-03-15T10:32:20.632Z,5.60
2018-03-15T10:34:48.925Z,5.50
2018-03-15T10:37:17.257Z,5.40
2018-03-15T10:39:45.448Z,5.50
2018-03-15T10:42:13.699Z,5.50
2018-03-15T10:44:42.772Z,5.40
2018-03-15T10:47:10.971Z,5.40
2018-03-15T10:49:39.988Z,5.30
2018-03-15T10:52:08.854Z,5.20
2018-03-15T10:54:37.064Z,5.30
2018-03-15T10:57:05.290Z,5.10
2018-03-15T10:59:33.477Z,5.20
2018-03-15T11:02:06.308Z,5.30
2018-03-15T11:04:34.485Z,5.30
2018-03-15T11:07:04.468Z,5.40
2018-03-15T11:09:32.768Z,5.50
2018-03-15T11:12:00.980Z,5.50
2018-03-15T11:14:29.168Z,5.50
2018-03-15T11:16:57.410Z,5.60
2018-03-15T11:19:25.647Z,5.80
2018-03-15T11:21:53.883Z,5.60
2018-03-15T11:24:22.862Z,5.60
2018-03-15T11:26:51.153Z,5.60
2018-03-15T11:29:19.388Z,5.50
2018-03-15T11:31:47.660Z,5.40
2018-03-15T11:34:15.930Z,5.40
2018-03-15T11:36:44.187Z,5.50
2018-03-15T11:39:12.442Z,5.50
2018-03-15T11:41:40.649Z,5.30
2018-03-15T11:44:08.838Z,5.20
2018-03-15T11:46:37.126Z,5.40
2018-03-15T11:49:05.323Z,5.30
2018-03-15T11:51:33.563Z,5.10
2018-03-15T11:54:01.938Z,5.20
2018-03-15T11:56:30.155Z,5.10
2018-03-15T11:58:59.114Z,5.10
2018-03-15T12:01:27.335Z,5.10
2018-03-15T12:03:56.403Z,4.90
2018-03-15T12:06:24.606Z,4.70
2018-03-15T12:08:52.812Z,4.60
2018-03-15T12:11:21.064Z,4.50
2018-03-15T12:13:49.327Z,4.50
2018-03-15T12:16:17.588Z,4.50
2018-03-15T12:18:46.618Z,4.40
2018-03-15T12:21:14.855Z,4.40
2018-03-15T12:23:43.789Z,4.30
2018-03-15T12:26:12.101Z,4.30
2018-03-15T12:28:40.269Z,4.40
2018-03-15T12:31:08.483Z,4.60
2018-03-15T12:33:37.488Z,4.60
2018-03-15T12:36:06.604Z,4.50
2018-03-15T12:38:34.839Z,4.60
2018-03-15T12:41:03.070Z,4.60
2018-03-15T12:43:31.268Z,4.50
2018-03-15T12:45:59.465Z,4.50
2018-03-15T12:48:28.459Z,4.40
2018-03-15T12:50:57.393Z,4.50
2018-03-15T12:53:25.634Z,4.50
2018-03-15T12:55:53.846Z,4.60
2018-03-15T12:58:22.096Z,4.50
2018-03-15T13:00:50.356Z,4.20
2018-03-15T13:03:18.726Z,4.10
2018-03-15T13:05:46.925Z,4.10
2018-03-15T13:08:15.155Z,4.10
2018-03-15T13:10:43.421Z,4.00
2018-03-15T13:13:11.649Z,4.00
2018-03-15T13:15:39.851Z,4.00
2018-03-15T13:18:08.038Z,4.00
2018-03-15T13:20:36.267Z,4.00
2018-03-15T13:23:04.569Z,4.10
2018-03-15T13:25:32.795Z,4.10
2018-03-15T13:28:01.093Z,4.10
2018-03-15T13:30:29.311Z,3.90
2018-03-15T13:32:57.563Z,3.90
2018-03-15T13:35:25.810Z,3.90
2018-03-15T13:37:54.038Z,3.80
2018-03-15T13:40:22.304Z,3.90
2018-03-15T13:42:50.594Z,3.80
2018-03-15T13:45:19.578Z,3.70
2018-03-15T13:47:47.864Z,3.70
2018-03-15T13:50:16.137Z,3.70
2018-03-15T13:52:44.404Z,3.70
2018-03-15T13:55:12.746Z,3.80
2018-03-15T13:57:41.004Z,3.80
2018-03-15T14:00:09.270Z,3.80
2018-03-15T14:02:37.636Z,3.90
2018-03-15T14:05:06.620Z,3.90
2018-03-15T14:07:35.567Z,3.90
2018-03-15T14:10:03.757Z,3.90
2018-03-15T14:12:31.926Z,3.80
2018-03-15T14:15:14.973Z,3.70
2018-03-15T14:17:43.250Z,3.70
2018-03-15T14:20:12.207Z,4.00
2018-03-15T14:22:40.504Z,3.90
2018-03-15T14:25:08.767Z,4.10
2018-03-15T14:27:38.665Z,4.10
2018-03-15T14:32:58.966Z,4.00
2018-03-15T14:35:27.312Z,4.10
2018-03-15T14:37:55.682Z,4.10
2018-03-15T14:40:24.283Z,4.10
2018-03-15T14:42:52.508Z,4.10
2018-03-15T14:45:20.837Z,4.10
2018-03-15T14:47:49.086Z,4.10
2018-03-15T14:50:17.275Z,4.10
2018-03-15T14:52:45.500Z,4.20
2018-03-15T14:55:13.691Z,4.20
2018-03-15T14:57:42.744Z,4.10
2018-03-15T15:00:10.947Z,4.10
2018-03-15T15:02:39.175Z,4.20
2018-03-15T15:05:07.381Z,4.30
2018-03-15T15:07:35.653Z,4.30
2018-03-15T15:10:03.844Z,4.30
2018-03-15T15:12:32.090Z,4.30
2018-03-15T15:15:00.510Z,4.30
2018-03-15T15:17:29.514Z,4.30
2018-03-15T15:19:57.779Z,4.30
2018-03-15T15:22:26.901Z,4.20
2018-03-15T15:24:55.228Z,4.30
2018-03-15T15:27:37.307Z,4.40
2018-03-15T15:30:06.734Z,4.30
2018-03-15T15:32:35.014Z,4.30
2018-03-15T15:35:03.222Z,4.30
2018-03-15T15:37:31.460Z,4.30
2018-03-15T15:39:59.643Z,4.30
2018-03-15T15:42:27.931Z,4.40
2018-03-15T15:44:56.926Z,4.50
2018-03-15T15:47:25.815Z,4.50
2018-03-15T15:49:54.847Z,4.50
2018-03-15T15:52:23.056Z,4.50
2018-03-15T15:54:51.333Z,4.50
2018-03-15T15:57:19.562Z,4.50
2018-03-15T15:59:47.886Z,4.50
2018-03-15T16:02:16.167Z,4.40
2018-03-15T16:04:44.331Z,4.40
2018-03-15T16:07:12.600Z,4.30
2018-03-15T16:09:40.826Z,4.30
2018-03-15T16:12:09.031Z,4.30
2018-03-15T16:14:37.308Z,4.30
2018-03-15T16:17:05.501Z,4.30
2018-03-15T16:19:34.496Z,4.30
2018-03-15T16:22:02.771Z,4.30
2018-03-15T16:24:30.977Z,4.30
2018-03-15T16:26:59.315Z,4.30
2018-03-15T16:29:27.640Z,4.30
2018-03-15T16:31:56.493Z,4.30
2018-03-15T16:34:24.767Z,4.30
2018-03-15T16:36:53.001Z,4.30
2018-03-15T16:39:21.223Z,4.30
2018-03-15T16:41:49.399Z,4.30
2018-03-15T16:44:18.441Z,4.10
2018-03-15T16:46:46.745Z,4.10
2018-03-15T16:49:14.938Z,4.10
2018-03-15T16:51:43.228Z,4.00
2018-03-15T16:54:11.490Z,3.90
2018-03-15T16:56:39.679Z,3.90
2018-03-15T16:59:08.662Z,4.00
2018-03-15T17:01:37.604Z,3.90
2018-03-15T17:04:05.831Z,3.90
2018-03-15T17:06:34.815Z,3.90
2018-03-15T17:09:03.822Z,3.90
2018-03-15T17:11:32.520Z,3.90
2018-03-15T17:14:00.735Z,3.80
2018-03-15T17:16:29.027Z,3.80
2018-03-15T17:18:57.241Z,3.90
2018-03-15T17:21:33.337Z,3.90
2018-03-15T17:24:01.613Z,3.80
2018-03-15T17:26:29.822Z,3.80
2018-03-15T17:28:58.016Z,3.70
2018-03-15T17:31:26.973Z,3.80
2018-03-15T17:33:55.204Z,3.80
2018-03-15T17:36:23.411Z,3.80
2018-03-15T17:38:51.607Z,3.80
2018-03-15T17:41:19.835Z,3.80
2018-03-15T17:43:48.030Z,3.70
2018-03-15T17:46:17.046Z,3.70
2018-03-15T17:48:45.998Z,3.70
2018-03-15T17:51:14.265Z,3.70
2018-03-15T17:53:42.503Z,3.70
2018-03-15T17:56:11.891Z,3.70
2018-03-15T17:58:40.095Z,3.70
2018-03-15T18:01:08.281Z,3.70
2018-03-15T18:03:36.524Z,3.80
2018-03-15T18:06:05.472Z,3.80
2018-03-15T18:08:33.699Z,3.80
2018-03-15T18:11:02.724Z,3.80
2018-03-15T18:13:31.319Z,3.80
2018-03-15T18:15:59.553Z,3.80
2018-03-15T18:18:27.754Z,3.80
2018-03-15T18:20:55.968Z,3.80
2018-03-15T18:23:24.976Z,3.80
2018-03-15T18:25:53.152Z,3.80
2018-03-15T18:28:21.328Z,3.80
2018-03-15T18:30:50.308Z,3.80
2018-03-15T18:33:18.496Z,3.80
2018-03-15T18:35:46.757Z,3.80
2018-03-15T18:38:14.936Z,3.80
2018-03-15T18:40:43.941Z,3.80
2018-03-15T18:43:12.910Z,3.80
2018-03-15T18:45:41.145Z,3.80
2018-03-15T18:48:09.345Z,3.90
2018-03-15T18:50:37.552Z,3.90
2018-03-15T18:53:06.512Z,3.80
2018-03-15T18:55:34.810Z,3.80
2018-03-15T18:58:03.031Z,3.80
2018-03-15T19:00:31.357Z,3.80
2018-03-15T19:03:00.357Z,3.80
2018-03-15T19:05:28.579Z,3.80
2018-03-15T19:07:56.828Z,3.80
2018-03-15T19:10:25.095Z,3.70
2018-03-15T19:12:53.371Z,3.70
2018-03-15T19:15:21.700Z,3.70
2018-03-15T19:17:50.050Z,3.70
2018-03-15T19:20:18.251Z,3.70
2018-03-15T19:22:46.588Z,3.70
2018-03-15T19:25:14.851Z,3.70
2018-03-15T19:27:43.059Z,3.60
2018-03-15T19:30:11.279Z,3.70
2018-03-15T19:32:40.374Z,3.60
2018-03-15T19:35:09.447Z,3.60
2018-03-15T19:37:37.680Z,3.60
2018-03-15T19:40:05.966Z,3.60
2018-03-15T19:42:34.236Z,3.60
2018-03-15T19:45:02.533Z,3.50
2018-03-15T19:47:30.915Z,3.50
2018-03-15T19:49:59.247Z,3.40
2018-03-15T19:52:27.485Z,3.40
2018-03-15T19:54:56.494Z,3.40
2018-03-15T19:57:24.787Z,3.40
2018-03-15T19:59:53.021Z,3.40
2018-03-15T20:02:21.372Z,3.40
2018-03-15T20:04:49.629Z,3.40
2018-03-15T20:07:18.030Z,3.40
2018-03-15T20:09:46.980Z,3.20
2018-03-15T20:12:15.249Z,3.20
2018-03-15T20:14:43.533Z,3.20
2018-03-15T20:17:11.831Z,3.10
2018-03-15T20:19:40.081Z,3.10
2018-03-15T20:22:09.076Z,3.20
2018-03-15T20:24:37.299Z,3.20
2018-03-15T20:27:05.516Z,3.10
2018-03-15T20:29:34.516Z,3.00
2018-03-15T20:32:02.746Z,3.00
2018-03-15T20:34:30.935Z,2.90
2018-03-15T20:36:59.261Z,2.90
2018-03-15T20:39:33.004Z,2.90
2018-03-15T20:42:01.352Z,3.00
2018-03-15T20:44:29.557Z,3.00
2018-03-15T20:47:03.398Z,2.90
2018-03-15T20:49:31.751Z,2.90
2018-03-15T20:52:00.764Z,2.90
2018-03-15T20:54:29.037Z,2.90
2018-03-15T20:56:57.362Z,2.80
2018-03-15T20:59:25.698Z,2.80
2018-03-15T21:01:53.936Z,2.80
2018-03-15T21:04:22.164Z,2.80
2018-03-15T21:06:50.408Z,2.80
2018-03-15T21:09:19.375Z,2.60
2018-03-15T21:12:10.660Z,2.60
2018-03-15T21:14:38.940Z,2.60
2018-03-15T21:17:21.939Z,2.60
2018-03-15T21:19:54.651Z,2.60
2018-03-15T21:22:36.650Z,2.60
2018-03-15T21:25:04.861Z,2.60
2018-03-15T21:27:33.189Z,2.60
2018-03-15T21:30:01.397Z,2.50
2018-03-15T21:32:29.628Z,2.50
2018-03-15T21:34:57.798Z,2.50
2018-03-15T21:37:25.971Z,2.50
2018-03-15T21:39:54.156Z,2.50
2018-03-15T21:42:22.339Z,2.50
2018-03-15T21:44:50.568Z,2.50
2018-03-15T21:47:18.991Z,2.40
2018-03-15T21:49:48.081Z,2.50
2018-03-15T21:52:16.285Z,2.40
2018-03-15T21:54:45.335Z,2.40
2018-03-15T21:57:13.655Z,2.40
2018-03-15T21:59:42.650Z,2.40
2018-03-15T22:02:11.739Z,2.40
2018-03-15T22:04:39.975Z,2.40
2018-03-15T22:07:08.442Z,2.30
2018-03-15T22:09:36.656Z,2.20
2018-03-15T22:12:04.953Z,2.30
2018-03-15T22:14:33.963Z,2.30
2018-03-15T22:17:02.925Z,2.30
2018-03-15T22:19:31.973Z,2.30
2018-03-15T22:22:15.304Z,2.30
2018-03-15T22:24:43.609Z,2.30
2018-03-15T22:27:12.699Z,2.40
2018-03-15T22:29:40.983Z,2.30
2018-03-15T22:32:10.233Z,2.40
2018-03-15T22:34:38.516Z,2.30
2018-03-15T22:37:06.899Z,2.40
2018-03-15T22:39:36.064Z,2.40
2018-03-15T22:42:04.480Z,2.30
2018-03-15T22:44:33.126Z,2.30
2018-03-15T22:47:01.331Z,2.40
2018-03-15T22:49:29.520Z,2.40
2018-03-15T22:51:57.776Z,2.40
2018-03-15T22:54:27.256Z,2.40
2018-03-15T23:00:01.987Z,2.40
2018-03-15T23:05:16.748Z,2.40
2018-03-15T23:07:44.935Z,2.40
2018-03-15T23:10:13.115Z,2.40
2018-03-15T23:12:41.321Z,2.50
2018-03-15T23:15:09.511Z,2.50
2018-03-15T23:17:38.687Z,2.50
2018-03-15T23:20:06.932Z,2.50
2018-03-15T23:25:50.417Z,2.50
2018-03-15T23:28:18.725Z,2.50
2018-03-15T23:30:46.971Z,2.50
2018-03-15T23:33:15.173Z,2.40
2018-03-15T23:35:43.350Z,2.40
2018-03-15T23:38:11.547Z,2.40
2018-03-15T23:40:40.522Z,2.40
2018-03-15T23:43:08.791Z,2.40
2018-03-15T23:45:36.953Z,2.40
2018-03-15T23:48:05.170Z,2.40
2018-03-15T23:50:35.456Z,2.40
2018-03-15T23:53:03.663Z,2.30
2018-03-15T23:55:31.956Z,2.40
2018-03-15T23:58:00.252Z,2.40
